CKT65C EGFF-EGPH
Flight info
| Callsign | CKT65C |
|---|---|
| Flight time | 0h 52m |
| Altitude | 30000 |
| Route | BCN P69 DIZIM N864 KISWO/N0506F270 DCT AVTIC DCT ANJAK/N0502F280 N38 NOKIN UP16 RIBEL DCT INPIP |
| Aircraft | L101/H-SDFGHIRWXY/S |
Departure
| Time | 2026-04-22 19:18 |
|---|---|
| Airport | Cardiff International Airport (EGFF) |
Arrival
| Time | 2026-04-22 20:11 |
|---|---|
| Airport | Edinburgh Airport (EGPH) |
| Time | Latitude | Longitude | Altitude | Speed | Heading |
|---|---|---|---|---|---|
| 2026-04-22 18:59 | 51.39686 | -3.33617 | 226 ft | 0 kts | 228° |
| 2026-04-22 19:13 | 51.39677 | -3.33630 | 229 ft | 7 kts | 219° |
| 2026-04-22 19:14 | 51.39649 | -3.33691 | 226 ft | 7 kts | 272° |
| 2026-04-22 19:14 | 51.39673 | -3.33784 | 227 ft | 12 kts | 296° |
| 2026-04-22 19:14 | 51.39721 | -3.33934 | 226 ft | 18 kts | 300° |
| 2026-04-22 19:15 | 51.39925 | -3.34585 | 231 ft | 20 kts | 296° |
| 2026-04-22 19:15 | 51.39993 | -3.34801 | 228 ft | 22 kts | 297° |
| 2026-04-22 19:15 | 51.40050 | -3.34981 | 228 ft | 15 kts | 296° |
| 2026-04-22 19:16 | 51.40101 | -3.35142 | 229 ft | 18 kts | 297° |
| 2026-04-22 19:16 | 51.40154 | -3.35315 | 229 ft | 16 kts | 283° |
| 2026-04-22 19:16 | 51.40123 | -3.35476 | 230 ft | 15 kts | 223° |
| 2026-04-22 19:16 | 51.40054 | -3.35552 | 225 ft | 7 kts | 257° |
| 2026-04-22 19:17 | 51.40073 | -3.35638 | 228 ft | 10 kts | 296° |
| 2026-04-22 19:17 | 51.40131 | -3.35727 | 228 ft | 13 kts | 329° |
| 2026-04-22 19:17 | 51.40148 | -3.35800 | 226 ft | 5 kts | 206° |
| 2026-04-22 19:17 | 51.40119 | -3.35770 | 228 ft | 6 kts | 129° |
| 2026-04-22 19:18 | 51.40091 | -3.35689 | 228 ft | 14 kts | 117° |
| 2026-04-22 19:18 | 51.39927 | -3.35175 | 224 ft | 100 kts | 116° |
| 2026-04-22 19:18 | 51.39496 | -3.33799 | 373 ft | 168 kts | 114° |
| 2026-04-22 19:18 | 51.38954 | -3.32062 | 1554 ft | 178 kts | 115° |
| 2026-04-22 19:19 | 51.38395 | -3.30250 | 3004 ft | 187 kts | 114° |
| 2026-04-22 19:19 | 51.37827 | -3.28368 | 4486 ft | 187 kts | 116° |
| 2026-04-22 19:19 | 51.37258 | -3.26453 | 5680 ft | 191 kts | 117° |
| 2026-04-22 19:19 | 51.36704 | -3.24582 | 6024 ft | 183 kts | 117° |
| 2026-04-22 19:20 | 51.36165 | -3.22780 | 6064 ft | 177 kts | 118° |
| 2026-04-22 19:20 | 51.35718 | -3.20994 | 6043 ft | 177 kts | 105° |
| 2026-04-22 19:20 | 51.35845 | -3.19001 | 5904 ft | 191 kts | 73° |
| 2026-04-22 19:20 | 51.36704 | -3.17261 | 5739 ft | 211 kts | 39° |
| 2026-04-22 19:21 | 51.38097 | -3.16417 | 5817 ft | 219 kts | 14° |
| 2026-04-22 19:21 | 51.39658 | -3.16295 | 6098 ft | 230 kts | 359° |
| 2026-04-22 19:21 | 51.41278 | -3.16627 | 6322 ft | 240 kts | 353° |
| 2026-04-22 19:21 | 51.42900 | -3.17267 | 6539 ft | 236 kts | 346° |
| 2026-04-22 19:22 | 51.44474 | -3.18024 | 6949 ft | 237 kts | 346° |
| 2026-04-22 19:22 | 51.46081 | -3.18697 | 7356 ft | 239 kts | 350° |
| 2026-04-22 19:22 | 51.47715 | -3.19238 | 7753 ft | 240 kts | 352° |
| 2026-04-22 19:22 | 51.49362 | -3.19733 | 8117 ft | 241 kts | 352° |
| 2026-04-22 19:23 | 51.51017 | -3.20218 | 8496 ft | 242 kts | 352° |
| 2026-04-22 19:23 | 51.52671 | -3.20694 | 8884 ft | 242 kts | 352° |
| 2026-04-22 19:23 | 51.54339 | -3.21166 | 9258 ft | 244 kts | 352° |
| 2026-04-22 19:23 | 51.56022 | -3.21638 | 9651 ft | 246 kts | 352° |
| 2026-04-22 19:24 | 51.57140 | -3.21949 | 9918 ft | 247 kts | 352° |
| 2026-04-22 19:24 | 51.58842 | -3.22423 | 10301 ft | 248 kts | 352° |
| 2026-04-22 19:24 | 51.60549 | -3.22896 | 10668 ft | 249 kts | 352° |
| 2026-04-22 19:24 | 51.62262 | -3.23372 | 11149 ft | 251 kts | 352° |
| 2026-04-22 19:25 | 51.63988 | -3.23855 | 11496 ft | 252 kts | 351° |
| 2026-04-22 19:25 | 51.65658 | -3.24331 | 12215 ft | 234 kts | 351° |
| 2026-04-22 19:25 | 51.67237 | -3.24785 | 12732 ft | 230 kts | 351° |
| 2026-04-22 19:25 | 51.68867 | -3.25246 | 12807 ft | 245 kts | 351° |
| 2026-04-22 19:26 | 51.70587 | -3.25734 | 12993 ft | 256 kts | 351° |
| 2026-04-22 19:26 | 51.72352 | -3.26248 | 13193 ft | 272 kts | 350° |
| 2026-04-22 19:26 | 51.74369 | -3.26810 | 13544 ft | 315 kts | 354° |
| 2026-04-22 19:26 | 51.76696 | -3.26751 | 13964 ft | 355 kts | 10° |
| 2026-04-22 19:27 | 51.79169 | -3.25676 | 14326 ft | 377 kts | 21° |
| 2026-04-22 19:27 | 51.81634 | -3.24173 | 14668 ft | 380 kts | 21° |
| 2026-04-22 19:27 | 51.84165 | -3.22894 | 14977 ft | 383 kts | 14° |
| 2026-04-22 19:27 | 51.86790 | -3.22170 | 15368 ft | 383 kts | 6° |
| 2026-04-22 19:28 | 51.89460 | -3.21880 | 15827 ft | 386 kts | 4° |
| 2026-04-22 19:28 | 51.92159 | -3.21712 | 16359 ft | 390 kts | 4° |
| 2026-04-22 19:28 | 51.94866 | -3.21315 | 16908 ft | 391 kts | 9° |
| 2026-04-22 19:28 | 51.97558 | -3.20557 | 17455 ft | 394 kts | 14° |
| 2026-04-22 19:29 | 52.00245 | -3.19573 | 18046 ft | 397 kts | 15° |
| 2026-04-22 19:29 | 52.02949 | -3.18617 | 18620 ft | 400 kts | 12° |
| 2026-04-22 19:29 | 52.05732 | -3.18009 | 19127 ft | 405 kts | 5° |
| 2026-04-22 19:29 | 52.08549 | -3.17863 | 19651 ft | 407 kts | 0° |
| 2026-04-22 19:30 | 52.10433 | -3.17920 | 20008 ft | 410 kts | 359° |
| 2026-04-22 19:30 | 52.14271 | -3.18011 | 20732 ft | 414 kts | 0° |
| 2026-04-22 19:30 | 52.17120 | -3.17844 | 21286 ft | 416 kts | 3° |
| 2026-04-22 19:30 | 52.20031 | -3.17463 | 21857 ft | 421 kts | 5° |
| 2026-04-22 19:31 | 52.22947 | -3.17016 | 22424 ft | 422 kts | 4° |
| 2026-04-22 19:31 | 52.25900 | -3.16655 | 23032 ft | 427 kts | 2° |
| 2026-04-22 19:31 | 52.28879 | -3.16447 | 23629 ft | 430 kts | 0° |
| 2026-04-22 19:31 | 52.31885 | -3.16325 | 24187 ft | 434 kts | 0° |
| 2026-04-22 19:32 | 52.34921 | -3.16183 | 24697 ft | 441 kts | 1° |
| 2026-04-22 19:32 | 52.38044 | -3.15965 | 25221 ft | 457 kts | 2° |
| 2026-04-22 19:32 | 52.41254 | -3.15665 | 25761 ft | 466 kts | 2° |
| 2026-04-22 19:32 | 52.44502 | -3.15350 | 26307 ft | 469 kts | 2° |
| 2026-04-22 19:33 | 52.47778 | -3.15067 | 26867 ft | 473 kts | 1° |
| 2026-04-22 19:33 | 52.51074 | -3.14828 | 27428 ft | 475 kts | 1° |
| 2026-04-22 19:33 | 52.54391 | -3.14616 | 28017 ft | 479 kts | 360° |
| 2026-04-22 19:33 | 52.57728 | -3.14410 | 28624 ft | 481 kts | 1° |
| 2026-04-22 19:34 | 52.61085 | -3.14173 | 29211 ft | 485 kts | 0° |
| 2026-04-22 19:34 | 52.64476 | -3.13875 | 29829 ft | 488 kts | 1° |
| 2026-04-22 19:34 | 52.67892 | -3.13541 | 30139 ft | 493 kts | 2° |
| 2026-04-22 19:35 | 52.74588 | -3.10992 | 30306 ft | 500 kts | 23° |
| 2026-04-22 19:35 | 52.80693 | -3.05475 | 30338 ft | 505 kts | 27° |
| 2026-04-22 19:36 | 52.87068 | -3.00663 | 30378 ft | 501 kts | 19° |
| 2026-04-22 19:36 | 52.93580 | -2.96641 | 30384 ft | 499 kts | 18° |
| 2026-04-22 19:37 | 53.00100 | -2.92703 | 30396 ft | 499 kts | 18° |
| 2026-04-22 19:37 | 53.06662 | -2.88786 | 30400 ft | 500 kts | 18° |
| 2026-04-22 19:38 | 53.13205 | -2.84819 | 30401 ft | 500 kts | 18° |
| 2026-04-22 19:38 | 53.19742 | -2.80829 | 30390 ft | 500 kts | 18° |
| 2026-04-22 19:39 | 53.26240 | -2.76836 | 30404 ft | 501 kts | 18° |
| 2026-04-22 19:39 | 53.32771 | -2.72772 | 30412 ft | 501 kts | 18° |
| 2026-04-22 19:40 | 53.39307 | -2.68685 | 30413 ft | 501 kts | 18° |
| 2026-04-22 19:40 | 53.45835 | -2.64618 | 30410 ft | 501 kts | 18° |
| 2026-04-22 19:41 | 53.52364 | -2.60500 | 30425 ft | 501 kts | 18° |
| 2026-04-22 19:41 | 53.58872 | -2.56332 | 30419 ft | 498 kts | 18° |
| 2026-04-22 19:42 | 53.65341 | -2.52253 | 30418 ft | 496 kts | 17° |
| 2026-04-22 19:42 | 53.71807 | -2.48177 | 30436 ft | 495 kts | 18° |
| 2026-04-22 19:43 | 53.81479 | -2.41958 | 30430 ft | 495 kts | 18° |
| 2026-04-22 19:43 | 53.87929 | -2.37849 | 30440 ft | 495 kts | 17° |
| 2026-04-22 19:44 | 53.94382 | -2.33723 | 30448 ft | 495 kts | 17° |
| 2026-04-22 19:44 | 54.00986 | -2.30802 | 30428 ft | 486 kts | 359° |
| 2026-04-22 19:45 | 54.04284 | -2.31179 | 30436 ft | 479 kts | 345° |
| 2026-04-22 19:45 | 54.07424 | -2.32932 | 30458 ft | 473 kts | 333° |
| 2026-04-22 19:45 | 54.13293 | -2.38036 | 30471 ft | 476 kts | 332° |
| 2026-04-22 19:46 | 54.19525 | -2.41914 | 30457 ft | 479 kts | 341° |
| 2026-04-22 19:46 | 54.25874 | -2.45263 | 30459 ft | 468 kts | 336° |
| 2026-04-22 19:47 | 54.28775 | -2.47299 | 30462 ft | 435 kts | 333° |
| 2026-04-22 19:47 | 54.31450 | -2.49436 | 30472 ft | 417 kts | 332° |
| 2026-04-22 19:47 | 54.36754 | -2.53487 | 30486 ft | 420 kts | 335° |
| 2026-04-22 19:48 | 54.39502 | -2.55337 | 29976 ft | 426 kts | 336° |
| 2026-04-22 19:48 | 54.42259 | -2.57145 | 29277 ft | 422 kts | 336° |
| 2026-04-22 19:48 | 54.44964 | -2.58968 | 28698 ft | 414 kts | 335° |
| 2026-04-22 19:48 | 54.47622 | -2.60846 | 28159 ft | 410 kts | 335° |
| 2026-04-22 19:49 | 54.50243 | -2.62756 | 27641 ft | 409 kts | 335° |
| 2026-04-22 19:49 | 54.52859 | -2.64655 | 27116 ft | 407 kts | 335° |
| 2026-04-22 19:49 | 54.55469 | -2.66506 | 26611 ft | 405 kts | 336° |
| 2026-04-22 19:49 | 54.58074 | -2.68323 | 26107 ft | 403 kts | 336° |
| 2026-04-22 19:50 | 54.60675 | -2.70130 | 25621 ft | 402 kts | 335° |
| 2026-04-22 19:50 | 54.63267 | -2.71957 | 25153 ft | 404 kts | 335° |
| 2026-04-22 19:50 | 54.65861 | -2.73833 | 24674 ft | 404 kts | 336° |
| 2026-04-22 19:50 | 54.68451 | -2.75711 | 24222 ft | 403 kts | 335° |
| 2026-04-22 19:51 | 54.71037 | -2.77564 | 23678 ft | 402 kts | 336° |
| 2026-04-22 19:51 | 54.73621 | -2.79388 | 23153 ft | 400 kts | 336° |
| 2026-04-22 19:51 | 54.76162 | -2.81175 | 22609 ft | 397 kts | 337° |
| 2026-04-22 19:51 | 54.78709 | -2.82977 | 22088 ft | 394 kts | 337° |
| 2026-04-22 19:52 | 54.81252 | -2.84782 | 21562 ft | 393 kts | 336° |
| 2026-04-22 19:52 | 54.83771 | -2.86587 | 21052 ft | 392 kts | 336° |
| 2026-04-22 19:52 | 54.86276 | -2.88418 | 20551 ft | 388 kts | 336° |
| 2026-04-22 19:52 | 54.88752 | -2.90273 | 20054 ft | 387 kts | 336° |
| 2026-04-22 19:53 | 54.91229 | -2.92085 | 19578 ft | 386 kts | 336° |
| 2026-04-22 19:53 | 54.93715 | -2.93830 | 19107 ft | 385 kts | 338° |
| 2026-04-22 19:53 | 54.96206 | -2.95522 | 18622 ft | 382 kts | 339° |
| 2026-04-22 19:53 | 54.98676 | -2.97174 | 18084 ft | 380 kts | 339° |
| 2026-04-22 19:54 | 55.01141 | -2.98806 | 17558 ft | 379 kts | 339° |
| 2026-04-22 19:54 | 55.03596 | -3.00467 | 17046 ft | 377 kts | 338° |
| 2026-04-22 19:54 | 55.06018 | -3.02169 | 16538 ft | 373 kts | 337° |
| 2026-04-22 19:54 | 55.08404 | -3.03884 | 16027 ft | 370 kts | 336° |
| 2026-04-22 19:55 | 55.10776 | -3.05605 | 15537 ft | 368 kts | 336° |
| 2026-04-22 19:55 | 55.13139 | -3.07319 | 15047 ft | 366 kts | 336° |
| 2026-04-22 19:55 | 55.15484 | -3.09018 | 14559 ft | 363 kts | 336° |
| 2026-04-22 19:55 | 55.17808 | -3.10699 | 14057 ft | 360 kts | 336° |
| 2026-04-22 19:56 | 55.20082 | -3.12350 | 13546 ft | 357 kts | 336° |
| 2026-04-22 19:56 | 55.22372 | -3.14027 | 13012 ft | 356 kts | 336° |
| 2026-04-22 19:56 | 55.24648 | -3.15706 | 12493 ft | 352 kts | 336° |
| 2026-04-22 19:56 | 55.26891 | -3.17373 | 11972 ft | 348 kts | 336° |
| 2026-04-22 19:57 | 55.29106 | -3.19033 | 11469 ft | 345 kts | 336° |
| 2026-04-22 19:57 | 55.31300 | -3.20690 | 10983 ft | 343 kts | 336° |
| 2026-04-22 19:57 | 55.33488 | -3.22356 | 10500 ft | 341 kts | 336° |
| 2026-04-22 19:57 | 55.35653 | -3.24018 | 9982 ft | 339 kts | 336° |
| 2026-04-22 19:58 | 55.37813 | -3.25682 | 9447 ft | 336 kts | 336° |
| 2026-04-22 19:58 | 55.39950 | -3.27333 | 8928 ft | 334 kts | 336° |
| 2026-04-22 19:58 | 55.42071 | -3.28980 | 8407 ft | 332 kts | 336° |
| 2026-04-22 19:58 | 55.44146 | -3.30599 | 7914 ft | 329 kts | 336° |
| 2026-04-22 19:59 | 55.46230 | -3.32228 | 7418 ft | 326 kts | 336° |
| 2026-04-22 20:00 | 55.58412 | -3.42027 | 6126 ft | 318 kts | 335° |
| 2026-04-22 20:00 | 55.60324 | -3.43990 | 6034 ft | 317 kts | 324° |
| 2026-04-22 20:01 | 55.62031 | -3.46458 | 6016 ft | 318 kts | 317° |
| 2026-04-22 20:01 | 55.63626 | -3.49187 | 5891 ft | 319 kts | 314° |
| 2026-04-22 20:01 | 55.65176 | -3.51992 | 5725 ft | 317 kts | 314° |
| 2026-04-22 20:01 | 55.66705 | -3.54800 | 5551 ft | 316 kts | 314° |
| 2026-04-22 20:02 | 55.68191 | -3.57520 | 5355 ft | 297 kts | 314° |
| 2026-04-22 20:02 | 55.69588 | -3.60057 | 5171 ft | 279 kts | 314° |
| 2026-04-22 20:02 | 55.70908 | -3.62443 | 4987 ft | 264 kts | 314° |
| 2026-04-22 20:02 | 55.72157 | -3.64698 | 4798 ft | 257 kts | 314° |
| 2026-04-22 20:03 | 55.73416 | -3.66974 | 4661 ft | 260 kts | 314° |
| 2026-04-22 20:03 | 55.74682 | -3.69275 | 4474 ft | 260 kts | 314° |
| 2026-04-22 20:03 | 55.75940 | -3.71574 | 4281 ft | 259 kts | 314° |
| 2026-04-22 20:03 | 55.77194 | -3.73880 | 4137 ft | 260 kts | 314° |
| 2026-04-22 20:04 | 55.78443 | -3.76185 | 4042 ft | 258 kts | 314° |
| 2026-04-22 20:04 | 55.79779 | -3.78295 | 3988 ft | 257 kts | 329° |
| 2026-04-22 20:04 | 55.81390 | -3.79415 | 3948 ft | 240 kts | 355° |
| 2026-04-22 20:04 | 55.82968 | -3.79141 | 3968 ft | 222 kts | 26° |
| 2026-04-22 20:05 | 55.84176 | -3.77630 | 3989 ft | 203 kts | 57° |
| 2026-04-22 20:05 | 55.84703 | -3.75458 | 3979 ft | 190 kts | 85° |
| 2026-04-22 20:05 | 55.84793 | -3.73178 | 4197 ft | 181 kts | 91° |
| 2026-04-22 20:05 | 55.84846 | -3.70991 | 4501 ft | 179 kts | 90° |
| 2026-04-22 20:06 | 55.84930 | -3.68733 | 4510 ft | 181 kts | 89° |
| 2026-04-22 20:06 | 55.85271 | -3.66570 | 4241 ft | 187 kts | 69° |
| 2026-04-22 20:06 | 55.85917 | -3.64597 | 3858 ft | 186 kts | 66° |
| 2026-04-22 20:06 | 55.86498 | -3.62558 | 3463 ft | 183 kts | 68° |
| 2026-04-22 20:07 | 55.87043 | -3.60556 | 3148 ft | 178 kts | 66° |
| 2026-04-22 20:07 | 55.87677 | -3.58711 | 2877 ft | 170 kts | 61° |
| 2026-04-22 20:07 | 55.88291 | -3.57011 | 2622 ft | 153 kts | 62° |
| 2026-04-22 20:07 | 55.88827 | -3.55435 | 2429 ft | 148 kts | 63° |
| 2026-04-22 20:08 | 55.89350 | -3.53869 | 2215 ft | 144 kts | 62° |
| 2026-04-22 20:08 | 55.89849 | -3.52404 | 1877 ft | 135 kts | 61° |
| 2026-04-22 20:08 | 55.90359 | -3.50997 | 1656 ft | 136 kts | 58° |
| 2026-04-22 20:08 | 55.90863 | -3.49596 | 1479 ft | 134 kts | 62° |
| 2026-04-22 20:09 | 55.91308 | -3.48148 | 1299 ft | 133 kts | 64° |
| 2026-04-22 20:09 | 55.91803 | -3.46712 | 1125 ft | 137 kts | 59° |
| 2026-04-22 20:09 | 55.92295 | -3.45273 | 1015 ft | 135 kts | 61° |
| 2026-04-22 20:09 | 55.92774 | -3.43793 | 815 ft | 142 kts | 59° |
| 2026-04-22 20:10 | 55.93300 | -3.42276 | 578 ft | 144 kts | 60° |
| 2026-04-22 20:10 | 55.93632 | -3.41296 | 469 ft | 135 kts | 60° |
| 2026-04-22 20:10 | 55.94120 | -3.39846 | 300 ft | 136 kts | 59° |
| 2026-04-22 20:10 | 55.94586 | -3.38475 | 135 ft | 125 kts | 58° |
| 2026-04-22 20:11 | 55.94968 | -3.37350 | 113 ft | 75 kts | 57° |
| 2026-04-22 20:11 | 55.95173 | -3.36742 | 114 ft | 43 kts | 60° |
| 2026-04-22 20:11 | 55.95264 | -3.36463 | 112 ft | 11 kts | 88° |
| 2026-04-22 20:11 | 55.95220 | -3.36377 | 116 ft | 10 kts | 149° |
| 2026-04-22 20:12 | 55.95158 | -3.36309 | 118 ft | 10 kts | 135° |
| 2026-04-22 20:12 | 55.95126 | -3.36168 | 117 ft | 14 kts | 108° |
| 2026-04-22 20:12 | 55.95095 | -3.35997 | 117 ft | 14 kts | 108° |
| 2026-04-22 20:12 | 55.95060 | -3.35917 | 118 ft | 2 kts | 189° |
| 2026-04-22 20:13 | 55.95041 | -3.35976 | 118 ft | 9 kts | 248° |
| 2026-04-22 20:13 | 55.95018 | -3.36077 | 118 ft | 0 kts | 248° |